createdAt,value
2024-05-09T00:16:08.080Z,10.6
2024-05-09T00:36:08.039Z,10.33
2024-05-09T00:56:08.042Z,10.08
2024-05-09T01:16:08.030Z,9.99
2024-05-09T01:36:07.929Z,9.58
2024-05-09T01:56:07.978Z,9.43
2024-05-09T02:16:07.870Z,9.02
2024-05-09T02:36:07.846Z,8.42
2024-05-09T02:56:07.835Z,8.1
2024-05-09T03:16:07.763Z,7.89
2024-05-09T03:36:09.748Z,7.47
2024-05-09T03:56:07.775Z,7.34
2024-05-09T04:16:07.661Z,7.02
2024-05-09T04:36:07.635Z,7.04
2024-05-09T05:16:07.573Z,7.86
2024-05-09T05:36:07.525Z,8.9
2024-05-09T07:16:07.353Z,13.07
2024-05-09T07:36:07.328Z,14.01
2024-05-09T07:56:07.653Z,15.44
2024-05-09T09:56:07.036Z,20.38
2024-05-09T10:16:07.002Z,21.61
2024-05-09T12:56:08.780Z,22.83
2024-05-09T13:36:06.610Z,24.39
2024-05-09T13:56:06.534Z,24.69
2024-05-09T14:36:06.439Z,21.51
2024-05-09T15:16:06.385Z,21.01
2024-05-09T15:56:06.273Z,21.07
2024-05-09T16:16:06.278Z,21.19
2024-05-09T16:36:06.224Z,20.83
2024-05-09T16:56:06.146Z,20.19
2024-05-09T17:16:06.135Z,20.07
2024-05-09T17:36:06.054Z,19.53
2024-05-09T17:56:06.067Z,19.43
2024-05-09T18:16:05.985Z,19.15
2024-05-09T18:36:05.949Z,18.5
2024-05-09T18:56:05.949Z,17.7
2024-05-09T19:16:05.935Z,16.59
2024-05-09T19:36:05.813Z,15.93
2024-05-09T19:56:05.771Z,15.73
2024-05-09T20:16:05.777Z,15.24
2024-05-09T20:36:05.693Z,14.81
2024-05-09T20:56:05.652Z,14.57
2024-05-09T21:16:05.663Z,14.17
2024-05-09T21:36:05.581Z,13.65
2024-05-09T21:56:05.536Z,13.08
2024-05-09T22:16:05.497Z,12.51
2024-05-09T22:56:05.419Z,11.8
2024-05-09T23:16:05.575Z,11.07
2024-05-09T23:36:05.380Z,10.53
2024-05-09T23:56:05.310Z,10.31
